createdAt,value
2018-02-11T00:02:04.327Z,92.76
2018-02-11T00:04:30.488Z,92.88
2018-02-11T00:06:56.693Z,92.93
2018-02-11T00:09:22.846Z,93.09
2018-02-11T00:11:48.978Z,93.22
2018-02-11T00:14:15.165Z,93.11
2018-02-11T00:16:41.385Z,92.92
2018-02-11T00:19:07.569Z,92.86
2018-02-11T00:21:33.762Z,92.72
2018-02-11T00:24:00.023Z,92.68
2018-02-11T00:26:26.279Z,92.71
2018-02-11T00:28:52.469Z,92.64
2018-02-11T00:31:18.608Z,92.73
2018-02-11T00:33:44.768Z,92.82
2018-02-11T00:36:11.661Z,93.05
2018-02-11T00:38:37.999Z,93.17
2018-02-11T00:41:04.162Z,93.19
2018-02-11T00:43:30.397Z,93.27
2018-02-11T00:45:56.615Z,93.37
2018-02-11T00:48:22.791Z,93.40
2018-02-11T00:50:48.992Z,93.39
2018-02-11T00:53:15.228Z,93.48
2018-02-11T00:55:41.464Z,93.39
2018-02-11T00:58:07.723Z,93.43
2018-02-11T01:00:33.891Z,93.46
2018-02-11T01:03:00.069Z,93.29
2018-02-11T01:05:26.283Z,93.26
2018-02-11T01:07:52.429Z,93.26
2018-02-11T01:10:18.640Z,93.23
2018-02-11T01:12:44.822Z,93.31
2018-02-11T01:15:11.030Z,93.38
2018-02-11T01:17:37.197Z,93.37
2018-02-11T01:20:03.410Z,93.42
2018-02-11T01:22:29.557Z,93.49
2018-02-11T01:24:55.733Z,93.57
2018-02-11T01:27:22.156Z,93.64
2018-02-11T01:29:48.329Z,93.66
2018-02-11T01:32:14.502Z,93.69
2018-02-11T01:34:40.704Z,93.67
2018-02-11T01:37:06.923Z,93.78
2018-02-11T01:39:33.103Z,93.79
2018-02-11T01:41:59.259Z,93.79
2018-02-11T01:44:25.434Z,93.81
2018-02-11T01:46:51.626Z,93.78
2018-02-11T01:49:17.794Z,93.75
2018-02-11T01:51:44.019Z,93.84
2018-02-11T01:54:10.182Z,93.92
2018-02-11T01:56:36.364Z,93.99
2018-02-11T01:59:02.574Z,94.04
2018-02-11T02:01:28.763Z,94.12
2018-02-11T02:03:54.938Z,94.19
2018-02-11T02:06:21.135Z,94.26
2018-02-11T02:08:47.307Z,94.26
2018-02-11T02:11:13.441Z,94.32
2018-02-11T02:13:39.603Z,94.43
2018-02-11T02:16:05.784Z,94.53
2018-02-11T02:18:31.947Z,94.65
2018-02-11T02:20:58.154Z,94.75
2018-02-11T02:23:24.324Z,94.79
2018-02-11T02:25:50.509Z,94.72
2018-02-11T02:28:16.721Z,94.64
2018-02-11T02:30:42.877Z,94.62
2018-02-11T02:33:09.012Z,94.62
2018-02-11T02:35:35.221Z,94.69
2018-02-11T02:38:01.347Z,94.72
2018-02-11T02:40:27.556Z,94.72
2018-02-11T02:42:53.774Z,94.69
2018-02-11T02:45:19.985Z,94.68
2018-02-11T02:47:46.132Z,94.75
2018-02-11T02:50:12.316Z,94.84
2018-02-11T02:52:45.431Z,94.98
2018-02-11T02:55:11.662Z,95.08
2018-02-11T02:57:37.821Z,95.07
2018-02-11T03:00:04.057Z,95.08
2018-02-11T03:02:30.260Z,95.02
2018-02-11T03:04:56.446Z,95.00
2018-02-11T03:07:22.646Z,95.02
2018-02-11T03:09:48.892Z,95.04
2018-02-11T03:12:15.066Z,94.98
2018-02-11T03:14:41.207Z,94.95
2018-02-11T03:17:07.393Z,94.95
2018-02-11T03:19:33.543Z,94.90
2018-02-11T03:21:59.720Z,94.98
2018-02-11T03:24:25.846Z,95.00
2018-02-11T03:26:52.113Z,95.01
2018-02-11T03:29:18.343Z,95.04
2018-02-11T03:31:44.491Z,95.06
2018-02-11T03:34:10.718Z,95.09
2018-02-11T03:36:36.956Z,95.11
2018-02-11T03:39:03.176Z,95.21
2018-02-11T03:41:29.322Z,95.20
2018-02-11T03:43:55.460Z,95.31
2018-02-11T03:46:21.691Z,95.33
2018-02-11T03:48:47.812Z,95.25
2018-02-11T03:51:14.045Z,95.25
2018-02-11T03:53:40.199Z,95.15
2018-02-11T03:56:06.390Z,95.05
2018-02-11T03:58:32.640Z,94.83
2018-02-11T04:00:58.756Z,94.66
2018-02-11T04:03:24.920Z,94.54
2018-02-11T04:05:51.152Z,94.53
2018-02-11T04:08:24.246Z,94.62
2018-02-11T04:10:50.373Z,94.73
2018-02-11T04:13:16.525Z,94.79
2018-02-11T04:15:42.722Z,94.87
2018-02-11T04:18:08.849Z,94.83
2018-02-11T04:20:35.033Z,94.99
2018-02-11T04:23:01.185Z,95.07
2018-02-11T04:25:27.349Z,95.10
2018-02-11T04:27:53.570Z,95.27
2018-02-11T04:30:19.700Z,95.38
2018-02-11T04:32:45.836Z,95.36
2018-02-11T04:35:11.999Z,95.33
2018-02-11T04:37:38.208Z,95.31
2018-02-11T04:40:04.350Z,95.23
2018-02-11T04:42:30.524Z,95.19
2018-02-11T04:44:56.623Z,95.17
2018-02-11T04:47:22.783Z,95.21
2018-02-11T04:49:48.949Z,95.19
2018-02-11T04:52:15.125Z,95.15
2018-02-11T04:54:41.308Z,95.16
2018-02-11T04:57:07.531Z,95.32
2018-02-11T04:59:33.723Z,95.55
2018-02-11T05:01:59.923Z,96.04
2018-02-11T05:04:26.033Z,94.85
2018-02-11T05:06:52.230Z,90.43
2018-02-11T05:09:18.718Z,90.95
2018-02-11T05:11:44.870Z,91.04
2018-02-11T05:14:11.051Z,90.80
2018-02-11T05:16:37.210Z,86.94
2018-02-11T05:19:03.370Z,88.32
2018-02-11T05:21:29.601Z,85.89
2018-02-11T05:23:55.725Z,87.08
2018-02-11T05:26:21.861Z,86.09
2018-02-11T05:28:48.058Z,86.26
2018-02-11T05:31:14.223Z,87.15
2018-02-11T05:33:40.421Z,85.53
2018-02-11T05:36:06.631Z,84.75
2018-02-11T05:38:32.765Z,84.03
2018-02-11T05:40:59.021Z,84.33
2018-02-11T05:43:25.211Z,85.48
2018-02-11T05:45:51.364Z,83.22
2018-02-11T05:48:17.518Z,84.04
2018-02-11T05:50:43.772Z,84.82
2018-02-11T05:53:09.977Z,84.98
2018-02-11T05:55:36.107Z,84.32
2018-02-11T05:58:02.400Z,85.03
2018-02-11T06:00:28.560Z,84.61
2018-02-11T06:02:54.750Z,85.11
2018-02-11T06:05:20.971Z,85.69
2018-02-11T06:07:47.090Z,86.41
2018-02-11T06:10:13.290Z,86.66
2018-02-11T06:12:39.491Z,87.25
2018-02-11T06:15:05.657Z,88.29
2018-02-11T06:17:31.797Z,88.33
2018-02-11T06:19:57.982Z,88.22
2018-02-11T06:22:24.170Z,88.11
2018-02-11T06:24:50.302Z,88.17
2018-02-11T06:27:16.479Z,88.33
2018-02-11T06:29:42.666Z,88.37
2018-02-11T06:32:08.871Z,88.57
2018-02-11T06:34:35.069Z,88.09
2018-02-11T06:37:01.257Z,87.54
2018-02-11T06:39:27.416Z,87.70
2018-02-11T06:42:00.719Z,87.26
2018-02-11T06:44:27.339Z,85.99
2018-02-11T06:46:53.489Z,85.51
2018-02-11T06:49:19.671Z,85.82
2018-02-11T06:51:46.727Z,85.75
2018-02-11T06:54:12.878Z,85.54
2018-02-11T06:56:39.035Z,85.01
2018-02-11T06:59:05.274Z,84.98
2018-02-11T07:01:31.520Z,84.67
2018-02-11T07:03:57.668Z,84.23
2018-02-11T07:06:23.800Z,83.90
2018-02-11T07:08:49.984Z,83.76
2018-02-11T07:11:16.208Z,83.48
2018-02-11T07:13:42.398Z,83.59
2018-02-11T07:16:08.621Z,83.89
2018-02-11T07:18:34.807Z,84.04
2018-02-11T07:21:00.945Z,84.18
2018-02-11T07:23:27.179Z,84.03
2018-02-11T07:25:53.314Z,84.19
2018-02-11T07:28:19.558Z,84.33
2018-02-11T07:30:45.740Z,84.75
2018-02-11T07:33:11.986Z,84.53
2018-02-11T07:35:38.150Z,84.85
2018-02-11T07:38:04.346Z,84.85
2018-02-11T07:40:30.555Z,85.55
2018-02-11T07:42:56.751Z,85.13
2018-02-11T07:45:22.894Z,85.08
2018-02-11T07:47:49.092Z,85.04
2018-02-11T07:50:15.246Z,84.37
2018-02-11T07:52:41.416Z,84.55
2018-02-11T07:55:07.625Z,84.30
2018-02-11T07:57:33.789Z,84.70
2018-02-11T08:00:00.018Z,84.28
2018-02-11T08:02:26.223Z,84.19
2018-02-11T08:04:52.412Z,83.86
2018-02-11T08:07:18.642Z,83.56
2018-02-11T08:09:45.114Z,83.19
2018-02-11T08:12:11.450Z,83.36
2018-02-11T08:14:37.821Z,83.15
2018-02-11T08:17:04.777Z,82.45
2018-02-11T08:19:31.050Z,81.52
2018-02-11T08:21:57.264Z,81.84
2018-02-11T08:24:24.483Z,81.52
2018-02-11T08:26:50.750Z,80.94
2018-02-11T08:29:17.017Z,80.66
2018-02-11T08:31:43.247Z,81.10
2018-02-11T08:34:09.393Z,80.08
2018-02-11T08:36:35.697Z,80.00
2018-02-11T08:39:01.935Z,79.44
2018-02-11T08:41:28.092Z,80.44
2018-02-11T08:43:54.296Z,80.45
2018-02-11T08:46:20.640Z,79.80
2018-02-11T08:48:46.822Z,79.47
2018-02-11T08:51:13.058Z,79.76
2018-02-11T08:53:39.374Z,78.92
2018-02-11T08:56:05.614Z,78.15
2018-02-11T08:58:31.843Z,78.27
2018-02-11T09:00:58.077Z,76.57
2018-02-11T09:03:24.328Z,74.52
2018-02-11T09:05:50.571Z,72.68
2018-02-11T09:08:16.729Z,73.31
2018-02-11T09:10:43.537Z,73.62
2018-02-11T09:13:10.771Z,74.96
2018-02-11T09:15:37.124Z,74.36
2018-02-11T09:18:03.386Z,74.92
2018-02-11T09:20:29.598Z,75.04
2018-02-11T09:22:55.774Z,74.13
2018-02-11T09:25:21.993Z,75.62
2018-02-11T09:27:48.275Z,74.77
2018-02-11T09:30:14.443Z,75.65
2018-02-11T09:32:40.620Z,74.40
2018-02-11T09:35:07.689Z,74.26
2018-02-11T09:37:33.917Z,75.27
2018-02-11T09:40:00.814Z,73.62
2018-02-11T09:42:27.035Z,74.32
2018-02-11T09:44:53.233Z,73.74
2018-02-11T09:47:19.409Z,73.82
2018-02-11T09:49:45.596Z,73.93
2018-02-11T09:52:11.816Z,74.35
2018-02-11T09:54:38.039Z,72.96
2018-02-11T09:57:04.228Z,72.70
2018-02-11T09:59:30.485Z,73.22
2018-02-11T10:01:56.708Z,73.77
2018-02-11T10:04:22.978Z,73.04
2018-02-11T10:06:49.248Z,73.70
2018-02-11T10:09:15.477Z,74.09
2018-02-11T10:11:41.701Z,73.15
2018-02-11T10:14:08.290Z,72.08
2018-02-11T10:16:34.744Z,72.51
2018-02-11T10:19:00.998Z,70.91
2018-02-11T10:21:27.204Z,70.94
2018-02-11T10:23:54.105Z,71.76
2018-02-11T10:26:20.365Z,70.75
2018-02-11T10:28:46.580Z,72.22
2018-02-11T10:31:13.219Z,71.40
2018-02-11T10:33:39.488Z,71.01
2018-02-11T10:36:05.732Z,70.81
2018-02-11T10:38:31.956Z,69.63
2018-02-11T10:40:58.200Z,69.67
2018-02-11T10:43:24.397Z,70.51
2018-02-11T10:45:50.588Z,68.92
2018-02-11T10:48:16.782Z,67.74
2018-02-11T10:50:43.042Z,68.16
2018-02-11T10:53:09.218Z,66.66
2018-02-11T10:55:35.471Z,67.25
2018-02-11T10:58:01.731Z,69.37
2018-02-11T11:00:27.891Z,68.28
2018-02-11T11:02:54.071Z,67.40
2018-02-11T11:05:20.321Z,68.40
2018-02-11T11:07:46.600Z,69.24
2018-02-11T11:10:13.153Z,67.56
2018-02-11T11:12:39.422Z,67.64
2018-02-11T11:15:05.607Z,67.18
2018-02-11T11:17:32.104Z,66.18
2018-02-11T11:19:58.562Z,65.74
2018-02-11T11:22:24.698Z,65.67
2018-02-11T11:24:50.836Z,66.30
2018-02-11T11:27:17.052Z,64.02
2018-02-11T11:29:43.246Z,65.85
2018-02-11T11:32:09.396Z,66.05
2018-02-11T11:34:35.561Z,66.49
2018-02-11T11:37:01.832Z,67.04
2018-02-11T11:39:28.036Z,67.58
2018-02-11T11:41:54.314Z,64.27
2018-02-11T11:44:20.542Z,64.39
2018-02-11T11:46:46.783Z,63.95
2018-02-11T11:49:12.929Z,64.52
2018-02-11T11:51:39.200Z,65.86
2018-02-11T11:54:05.389Z,64.83
2018-02-11T11:56:31.608Z,64.95
2018-02-11T11:58:57.942Z,64.06
2018-02-11T12:01:24.386Z,63.44
2018-02-11T12:03:50.568Z,64.03
2018-02-11T12:06:16.807Z,64.67
2018-02-11T12:08:42.954Z,64.23
2018-02-11T12:11:09.103Z,63.10
2018-02-11T12:13:35.320Z,63.47
2018-02-11T12:16:01.561Z,61.83
2018-02-11T12:18:28.749Z,62.82
2018-02-11T12:20:55.399Z,62.86
2018-02-11T12:23:21.598Z,61.76
2018-02-11T12:25:47.806Z,63.82
2018-02-11T12:28:14.118Z,63.64
2018-02-11T12:30:40.324Z,63.33
2018-02-11T12:33:06.492Z,63.37
2018-02-11T12:35:32.716Z,64.06
2018-02-11T12:37:59.065Z,64.76
2018-02-11T12:40:25.282Z,64.05
2018-02-11T12:42:51.451Z,64.23
2018-02-11T12:45:17.685Z,63.87
2018-02-11T12:47:43.885Z,65.66
2018-02-11T12:50:10.031Z,66.42
2018-02-11T12:52:36.222Z,65.98
2018-02-11T12:55:02.418Z,65.51
2018-02-11T12:57:28.658Z,64.35
2018-02-11T12:59:54.928Z,65.30
2018-02-11T13:02:21.122Z,65.41
2018-02-11T13:04:47.358Z,66.50
2018-02-11T13:07:13.586Z,64.71
2018-02-11T13:09:39.758Z,62.69
2018-02-11T13:12:05.966Z,63.78
2018-02-11T13:14:32.141Z,63.56
2018-02-11T13:16:58.420Z,63.07
2018-02-11T13:19:24.611Z,64.10
2018-02-11T13:21:50.855Z,64.47
2018-02-11T13:24:17.040Z,63.04
2018-02-11T13:26:43.245Z,62.45
2018-02-11T13:29:09.481Z,62.09
2018-02-11T13:31:35.705Z,61.74
2018-02-11T13:34:01.865Z,62.13
2018-02-11T13:36:28.092Z,60.07
2018-02-11T13:38:54.268Z,61.43
2018-02-11T13:41:20.487Z,60.68
2018-02-11T13:43:46.702Z,62.62
2018-02-11T13:46:12.944Z,60.02
2018-02-11T13:48:39.090Z,61.85
2018-02-11T13:51:05.308Z,62.19
2018-02-11T13:53:31.497Z,61.00
2018-02-11T13:55:57.713Z,62.07
2018-02-11T13:58:23.897Z,62.61
2018-02-11T14:00:50.070Z,61.98
2018-02-11T14:03:16.303Z,60.39
2018-02-11T14:05:42.489Z,60.59
2018-02-11T14:08:08.850Z,62.36
2018-02-11T14:10:35.059Z,60.63
2018-02-11T14:13:01.259Z,60.65
2018-02-11T14:15:27.454Z,60.71
2018-02-11T14:17:53.679Z,61.20
2018-02-11T14:20:19.827Z,61.28
2018-02-11T14:22:46.041Z,61.92
2018-02-11T14:25:12.225Z,61.34
2018-02-11T14:27:38.467Z,62.19
2018-02-11T14:30:04.689Z,63.25
2018-02-11T14:32:30.847Z,63.69
2018-02-11T14:34:56.980Z,63.99
2018-02-11T14:37:23.161Z,63.62
2018-02-11T14:39:49.322Z,63.85
2018-02-11T14:42:15.451Z,65.58
2018-02-11T14:44:41.618Z,64.67
2018-02-11T14:47:07.862Z,64.97
2018-02-11T14:49:33.995Z,65.52
2018-02-11T14:52:00.179Z,65.74
2018-02-11T14:54:26.295Z,65.70
2018-02-11T14:56:53.427Z,65.77
2018-02-11T14:59:19.654Z,65.74
2018-02-11T15:01:45.787Z,65.04
2018-02-11T15:04:11.969Z,64.91
2018-02-11T15:06:38.190Z,67.22
2018-02-11T15:09:04.374Z,67.72
2018-02-11T15:11:30.523Z,69.97
2018-02-11T15:13:56.678Z,72.36
2018-02-11T15:16:23.721Z,74.11
2018-02-11T15:18:49.855Z,75.27
2018-02-11T15:21:16.041Z,78.35
2018-02-11T15:23:42.226Z,78.99
2018-02-11T15:26:08.481Z,79.56
2018-02-11T15:28:34.731Z,79.42
2018-02-11T15:31:01.179Z,79.34
2018-02-11T15:33:27.402Z,79.91
2018-02-11T15:35:53.725Z,80.29
2018-02-11T15:38:19.961Z,80.25
2018-02-11T15:40:46.365Z,80.80
2018-02-11T15:43:12.851Z,81.70
2018-02-11T15:45:39.021Z,81.64
2018-02-11T15:48:05.269Z,81.78
2018-02-11T15:50:31.509Z,82.24
2018-02-11T15:52:57.774Z,82.67
2018-02-11T15:55:24.000Z,82.98
2018-02-11T15:57:50.237Z,83.21
2018-02-11T16:00:16.443Z,83.32
2018-02-11T16:02:42.673Z,83.01
2018-02-11T16:05:08.842Z,82.78
2018-02-11T16:07:35.081Z,80.81
2018-02-11T16:10:01.216Z,81.75
2018-02-11T16:12:27.440Z,80.90
2018-02-11T16:14:53.620Z,80.16
2018-02-11T16:17:19.790Z,81.43
2018-02-11T16:19:45.935Z,81.18
2018-02-11T16:22:12.254Z,80.66
2018-02-11T16:24:38.478Z,80.77
2018-02-11T16:27:04.647Z,81.00
2018-02-11T16:29:30.846Z,79.02
2018-02-11T16:31:57.017Z,79.32
2018-02-11T16:34:23.224Z,77.84
2018-02-11T16:36:49.414Z,77.96
2018-02-11T16:39:15.646Z,75.71
2018-02-11T16:41:41.843Z,76.62
2018-02-11T16:44:08.033Z,76.39
2018-02-11T16:46:34.231Z,76.76
2018-02-11T16:49:00.559Z,73.96
2018-02-11T16:51:26.830Z,71.97
2018-02-11T16:53:53.349Z,72.98
2018-02-11T16:56:19.579Z,70.96
2018-02-11T16:58:45.872Z,71.11
2018-02-11T17:01:12.088Z,69.86
2018-02-11T17:03:38.305Z,71.87
2018-02-11T17:06:04.566Z,72.03
2018-02-11T17:08:30.706Z,72.17
2018-02-11T17:10:56.886Z,71.71
2018-02-11T17:13:23.106Z,73.00
2018-02-11T17:15:49.229Z,74.05
2018-02-11T17:18:15.458Z,74.27
2018-02-11T17:20:41.591Z,74.98
2018-02-11T17:23:07.856Z,75.17
2018-02-11T17:25:34.063Z,75.30
2018-02-11T17:28:00.289Z,76.25
2018-02-11T17:30:26.455Z,75.80
2018-02-11T17:32:52.619Z,76.11
2018-02-11T17:35:18.820Z,76.44
2018-02-11T17:37:45.018Z,76.80
2018-02-11T17:40:11.142Z,76.73
2018-02-11T17:42:37.364Z,76.63
2018-02-11T17:45:03.575Z,76.69
2018-02-11T17:47:29.756Z,76.45
2018-02-11T17:49:55.914Z,75.64
2018-02-11T17:52:22.177Z,75.36
2018-02-11T17:54:48.458Z,75.50
2018-02-11T17:57:14.717Z,73.71
2018-02-11T17:59:40.922Z,74.46
2018-02-11T18:02:07.324Z,72.00
2018-02-11T18:04:33.532Z,71.52
2018-02-11T18:06:59.711Z,71.49
2018-02-11T18:09:25.914Z,69.62
2018-02-11T18:11:52.066Z,69.31
2018-02-11T18:14:18.306Z,70.72
2018-02-11T18:16:44.536Z,71.29
2018-02-11T18:19:10.716Z,71.43
2018-02-11T18:21:36.877Z,72.73
2018-02-11T18:24:03.118Z,73.88
2018-02-11T18:26:29.254Z,73.54
2018-02-11T18:28:55.595Z,72.75
2018-02-11T18:31:21.778Z,72.87
2018-02-11T18:33:48.683Z,72.86
2018-02-11T18:36:14.868Z,73.19
2018-02-11T18:38:41.057Z,72.96
2018-02-11T18:41:07.241Z,72.39
2018-02-11T18:43:34.155Z,73.53
2018-02-11T18:46:00.364Z,72.72
2018-02-11T18:48:26.524Z,75.89
2018-02-11T18:50:52.732Z,79.80
2018-02-11T18:53:18.926Z,81.81
2018-02-11T18:55:45.145Z,82.79
2018-02-11T18:58:11.433Z,83.91
2018-02-11T19:00:37.679Z,85.16
2018-02-11T19:03:03.869Z,86.51
2018-02-11T19:05:30.152Z,87.35
2018-02-11T19:07:56.347Z,88.02
2018-02-11T19:10:22.541Z,88.39
2018-02-11T19:12:48.678Z,88.69
2018-02-11T19:15:14.921Z,88.58
2018-02-11T19:17:48.084Z,88.53
2018-02-11T19:20:14.271Z,88.83
2018-02-11T19:22:40.539Z,89.12
2018-02-11T19:25:07.807Z,88.82
2018-02-11T19:27:34.103Z,88.98
2018-02-11T19:30:00.361Z,88.83
2018-02-11T19:32:26.545Z,89.08
2018-02-11T19:34:52.818Z,89.02
2018-02-11T19:37:19.024Z,89.35
2018-02-11T19:39:45.298Z,89.60
2018-02-11T19:42:18.651Z,89.89
2018-02-11T19:44:44.921Z,89.96
2018-02-11T19:47:11.135Z,90.00
2018-02-11T19:49:38.261Z,90.09
2018-02-11T19:52:04.550Z,90.13
2018-02-11T19:54:30.788Z,89.37
2018-02-11T19:56:57.107Z,89.14
2018-02-11T19:59:23.490Z,89.03
2018-02-11T20:01:49.774Z,87.55
2018-02-11T20:04:16.109Z,87.26
2018-02-11T20:06:42.398Z,87.00
2018-02-11T20:09:08.633Z,86.77
2018-02-11T20:11:34.918Z,86.56
2018-02-11T20:14:01.263Z,86.63
2018-02-11T20:16:27.518Z,86.29
2018-02-11T20:18:53.724Z,87.19
2018-02-11T20:21:20.072Z,87.60
2018-02-11T20:23:46.334Z,87.88
2018-02-11T20:26:12.590Z,87.92
2018-02-11T20:28:38.940Z,88.43
2018-02-11T20:31:05.548Z,88.78
2018-02-11T20:33:31.928Z,89.00
2018-02-11T20:35:58.198Z,88.84
2018-02-11T20:38:24.486Z,88.13
2018-02-11T20:40:50.685Z,88.25
2018-02-11T20:43:16.912Z,88.10
2018-02-11T20:45:43.205Z,88.26
2018-02-11T20:48:09.420Z,87.81
2018-02-11T20:50:35.696Z,87.69
2018-02-11T20:53:01.881Z,87.87
2018-02-11T20:55:28.145Z,88.11
2018-02-11T20:57:54.405Z,87.37
2018-02-11T21:00:20.657Z,87.90
2018-02-11T21:02:46.840Z,87.44
2018-02-11T21:05:13.011Z,87.60
2018-02-11T21:07:39.232Z,87.34
2018-02-11T21:10:06.005Z,87.08
2018-02-11T21:12:32.279Z,86.79
2018-02-11T21:14:58.595Z,87.04
2018-02-11T21:17:24.834Z,86.39
2018-02-11T21:19:51.012Z,86.12
2018-02-11T21:22:17.186Z,86.14
2018-02-11T21:24:43.422Z,85.49
2018-02-11T21:27:09.673Z,84.20
2018-02-11T21:29:35.942Z,83.90
2018-02-11T21:32:02.836Z,80.72
2018-02-11T21:34:29.027Z,80.50
2018-02-11T21:36:55.283Z,80.25
2018-02-11T21:39:21.449Z,79.76
2018-02-11T21:41:47.644Z,78.17
2018-02-11T21:44:13.823Z,78.18
2018-02-11T21:46:40.057Z,78.54
2018-02-11T21:49:06.233Z,79.05
2018-02-11T21:51:32.440Z,78.70
2018-02-11T21:53:58.652Z,78.76
2018-02-11T21:56:24.888Z,77.36
2018-02-11T21:58:51.131Z,77.60
2018-02-11T22:01:17.354Z,76.75
2018-02-11T22:03:43.554Z,76.81
2018-02-11T22:06:09.858Z,77.09
2018-02-11T22:08:36.366Z,76.19
2018-02-11T22:11:02.548Z,75.26
2018-02-11T22:13:28.763Z,74.68
2018-02-11T22:15:54.994Z,75.93
2018-02-11T22:18:21.207Z,75.00
2018-02-11T22:20:47.384Z,74.56
2018-02-11T22:23:13.621Z,74.79
2018-02-11T22:25:39.811Z,75.34
2018-02-11T22:28:06.023Z,74.42
2018-02-11T22:30:32.219Z,74.27
2018-02-11T22:32:58.393Z,74.87
2018-02-11T22:35:24.544Z,73.76
2018-02-11T22:37:50.786Z,73.92
2018-02-11T22:40:16.952Z,73.91
2018-02-11T22:42:43.103Z,74.32
2018-02-11T22:45:09.285Z,75.89
2018-02-11T22:47:35.537Z,75.62
2018-02-11T22:50:01.695Z,75.56
2018-02-11T22:52:27.884Z,76.87
2018-02-11T22:54:54.043Z,78.15
2018-02-11T22:57:20.264Z,78.63
2018-02-11T22:59:46.456Z,79.34
2018-02-11T23:02:12.604Z,79.01
2018-02-11T23:04:38.775Z,78.53
2018-02-11T23:07:05.025Z,77.60
2018-02-11T23:09:31.145Z,76.19
2018-02-11T23:11:57.318Z,76.54
2018-02-11T23:14:23.472Z,75.91
2018-02-11T23:16:49.709Z,75.45
2018-02-11T23:19:15.856Z,75.75
2018-02-11T23:21:41.999Z,76.67
2018-02-11T23:24:08.159Z,76.03
2018-02-11T23:26:34.398Z,76.66
2018-02-11T23:29:00.585Z,77.18
2018-02-11T23:31:26.724Z,77.33
2018-02-11T23:33:52.921Z,76.99
2018-02-11T23:36:19.129Z,76.11
2018-02-11T23:38:45.268Z,77.38
2018-02-11T23:41:11.443Z,77.20
2018-02-11T23:43:37.603Z,76.78
2018-02-11T23:46:03.845Z,77.03
2018-02-11T23:48:30.022Z,76.85
2018-02-11T23:50:56.244Z,77.14
2018-02-11T23:53:22.390Z,76.94
2018-02-11T23:55:48.535Z,76.60
2018-02-11T23:58:14.725Z,76.11
